createdAt,value
2019-02-23T00:01:30.853Z,25.13
2019-02-23T00:04:00.751Z,22.53
2019-02-23T00:06:30.696Z,24.90
2019-02-23T00:09:00.659Z,24.50
2019-02-23T00:11:30.681Z,23.43
2019-02-23T00:14:00.656Z,23.67
2019-02-23T00:16:30.688Z,25.80
2019-02-23T00:19:00.580Z,29.30
2019-02-23T00:21:30.613Z,24.67
2019-02-23T00:24:00.624Z,27.97
2019-02-23T00:26:30.572Z,18.70
2019-02-23T00:29:00.594Z,24.57
2019-02-23T00:31:30.593Z,22.00
2019-02-23T00:34:00.491Z,30.13
2019-02-23T00:36:30.528Z,30.67
2019-02-23T00:39:00.593Z,31.90
2019-02-23T00:41:30.533Z,31.97
2019-02-23T00:44:00.449Z,26.53
2019-02-23T00:46:30.389Z,41.97
2019-02-23T00:49:00.318Z,28.07
2019-02-23T00:51:30.258Z,33.30
2019-02-23T00:54:00.152Z,29.07
2019-02-23T00:56:30.069Z,27.90
2019-02-23T00:59:00.039Z,32.60
2019-02-23T01:01:30.097Z,34.57
2019-02-23T01:03:59.999Z,34.73
2019-02-23T01:06:29.963Z,33.70
2019-02-23T01:08:59.893Z,33.63
2019-02-23T01:11:29.978Z,24.47
2019-02-23T01:13:59.915Z,32.20
2019-02-23T01:16:29.980Z,29.90
2019-02-23T01:18:59.908Z,33.20
2019-02-23T01:21:29.897Z,29.73
2019-02-23T01:23:59.837Z,30.80
2019-02-23T01:26:29.885Z,34.73
2019-02-23T01:28:59.851Z,32.70
2019-02-23T01:31:29.810Z,32.57
2019-02-23T01:33:59.722Z,18.13
2019-02-23T01:36:29.725Z,35.47
2019-02-23T01:38:59.817Z,32.50
2019-02-23T01:41:29.821Z,28.43
2019-02-23T01:44:00.514Z,25.87
2019-02-23T01:46:30.614Z,26.60
2019-02-23T01:49:00.631Z,29.63
2019-02-23T01:51:30.698Z,27.10
2019-02-23T01:54:00.692Z,34.40
2019-02-23T01:56:30.775Z,24.83
2019-02-23T01:59:00.717Z,28.20
2019-02-23T02:01:30.647Z,29.23
2019-02-23T02:04:00.591Z,27.50
2019-02-23T02:06:30.597Z,29.87
2019-02-23T02:09:00.528Z,32.97
2019-02-23T02:11:30.538Z,28.37
2019-02-23T02:14:00.625Z,19.17
2019-02-23T02:16:31.939Z,21.53
2019-02-23T02:19:01.999Z,23.23
2019-02-23T02:21:31.971Z,21.47
2019-02-23T02:24:01.893Z,28.43
2019-02-23T02:26:31.889Z,24.77
2019-02-23T02:29:02.241Z,22.40
2019-02-23T02:31:32.290Z,20.07
2019-02-23T02:34:05.537Z,19.90
2019-02-23T02:36:35.485Z,27.53
2019-02-23T02:39:08.284Z,36.03
2019-02-23T02:41:38.362Z,25.00
2019-02-23T02:44:08.349Z,35.93
2019-02-23T02:46:38.469Z,22.07
2019-02-23T02:49:08.390Z,35.30
2019-02-23T02:51:38.405Z,25.03
2019-02-23T02:54:08.325Z,29.40
2019-02-23T02:56:38.404Z,23.80
2019-02-23T02:59:08.440Z,27.60
2019-02-23T03:01:38.358Z,34.80
2019-02-23T03:04:08.296Z,18.83
2019-02-23T03:06:38.237Z,27.37
2019-02-23T03:09:10.516Z,23.23
2019-02-23T03:11:40.738Z,32.10
2019-02-23T03:14:10.735Z,22.27
2019-02-23T03:16:40.629Z,36.43
2019-02-23T03:19:10.580Z,26.97
2019-02-23T03:21:40.474Z,30.07
2019-02-23T03:24:10.409Z,29.07
2019-02-23T03:26:40.466Z,26.67
2019-02-23T03:29:10.384Z,32.80
2019-02-23T03:31:40.510Z,30.90
2019-02-23T03:34:10.425Z,27.33
2019-02-23T03:36:40.393Z,35.80
2019-02-23T03:39:10.316Z,28.30
2019-02-23T03:41:40.247Z,33.73
2019-02-23T03:44:10.318Z,38.73
2019-02-23T03:46:40.368Z,40.07
2019-02-23T03:49:10.409Z,29.53
2019-02-23T03:51:40.355Z,30.97
2019-02-23T03:54:10.353Z,34.57
2019-02-23T03:56:40.268Z,33.03
2019-02-23T03:59:10.293Z,31.83
2019-02-23T04:01:40.312Z,35.00
2019-02-23T04:04:10.318Z,28.67
2019-02-23T04:06:40.287Z,24.33
2019-02-23T04:09:10.253Z,24.70
2019-02-23T04:11:40.190Z,34.67
2019-02-23T04:14:10.112Z,32.17
2019-02-23T04:16:40.062Z,32.50
2019-02-23T04:19:10.132Z,33.83
2019-02-23T04:21:40.155Z,31.77
2019-02-23T04:24:10.162Z,26.23
2019-02-23T04:26:40.201Z,28.23
2019-02-23T04:29:10.101Z,25.87
2019-02-23T04:31:40.130Z,27.07
2019-02-23T04:34:10.051Z,29.43
2019-02-23T04:36:40.044Z,36.50
2019-02-23T04:39:10.197Z,28.23
2019-02-23T04:41:40.281Z,31.43
2019-02-23T04:44:10.247Z,28.80
2019-02-23T04:46:40.173Z,32.67
2019-02-23T04:49:10.209Z,37.63
2019-02-23T04:51:40.161Z,28.40
2019-02-23T04:54:10.329Z,34.33
2019-02-23T04:56:40.333Z,26.63
2019-02-23T04:59:10.263Z,28.23
2019-02-23T05:01:40.250Z,29.93
2019-02-23T05:04:10.194Z,23.37
2019-02-23T05:06:40.289Z,26.53
2019-02-23T05:09:10.206Z,21.80
2019-02-23T05:11:40.235Z,38.80
2019-02-23T05:14:10.167Z,32.67
2019-02-23T05:16:40.197Z,29.47
2019-02-23T05:19:10.112Z,30.07
2019-02-23T05:21:40.030Z,31.93
2019-02-23T05:24:10.028Z,29.50
2019-02-23T05:26:39.973Z,28.67
2019-02-23T05:29:10.004Z,29.60
2019-02-23T05:31:39.977Z,26.07
2019-02-23T05:34:09.888Z,28.97
2019-02-23T05:36:39.834Z,26.63
2019-02-23T05:39:09.729Z,26.80
2019-02-23T05:41:39.754Z,30.47
2019-02-23T05:44:09.856Z,31.17
2019-02-23T05:46:39.837Z,31.63
2019-02-23T05:49:09.806Z,31.50
2019-02-23T05:51:40.536Z,26.57
2019-02-23T05:54:10.429Z,27.53
2019-02-23T05:56:40.341Z,24.50
2019-02-23T05:59:12.055Z,26.00
2019-02-23T06:01:42.078Z,31.90
2019-02-23T06:04:12.072Z,37.20
2019-02-23T06:06:42.053Z,31.27
2019-02-23T06:09:13.015Z,34.60
2019-02-23T06:11:43.011Z,31.70
2019-02-23T06:14:13.091Z,36.63
2019-02-23T06:16:43.018Z,33.07
2019-02-23T06:19:12.924Z,30.17
2019-02-23T06:21:52.651Z,28.87
2019-02-23T06:24:15.011Z,35.60
2019-02-23T06:26:45.099Z,50.70
2019-02-23T06:29:15.001Z,31.70
2019-02-23T06:31:45.192Z,38.20
2019-02-23T06:34:16.501Z,35.73
2019-02-23T06:36:46.795Z,31.83
2019-02-23T06:39:17.087Z,29.80
2019-02-23T06:41:47.137Z,28.73
2019-02-23T06:44:18.940Z,36.40
2019-02-23T06:46:50.398Z,32.20
2019-02-23T06:49:20.412Z,35.13
2019-02-23T06:51:50.331Z,30.83
2019-02-23T06:54:20.330Z,35.03
2019-02-23T06:56:50.258Z,31.43
2019-02-23T06:59:20.307Z,24.97
2019-02-23T07:01:50.435Z,40.90
2019-02-23T07:04:20.362Z,34.60
2019-02-23T07:06:50.291Z,31.93
2019-02-23T07:09:20.281Z,33.13
2019-02-23T07:11:50.762Z,37.80
2019-02-23T07:14:20.772Z,36.57
2019-02-23T07:16:50.790Z,33.03
2019-02-23T07:19:22.644Z,37.90
2019-02-23T07:21:52.638Z,37.13
2019-02-23T07:24:22.589Z,37.40
2019-02-23T07:26:52.502Z,38.67
2019-02-23T07:29:22.475Z,38.10
2019-02-23T07:31:52.531Z,34.57
2019-02-23T07:34:22.462Z,38.90
2019-02-23T07:36:52.554Z,35.47
2019-02-23T07:39:22.464Z,38.53
2019-02-23T07:41:52.396Z,34.80
2019-02-23T07:44:22.339Z,35.80
2019-02-23T07:46:52.327Z,47.43
2019-02-23T07:49:22.255Z,37.83
2019-02-23T07:51:52.256Z,38.33
2019-02-23T07:54:22.272Z,37.27
2019-02-23T07:56:52.175Z,27.87
2019-02-23T07:59:22.227Z,41.40
2019-02-23T08:01:52.221Z,28.53
2019-02-23T08:04:22.126Z,37.93
2019-02-23T08:06:52.037Z,33.17
2019-02-23T08:09:21.947Z,39.73
2019-02-23T08:11:52.601Z,34.60
2019-02-23T08:14:22.456Z,38.77
2019-02-23T08:16:52.423Z,37.90
2019-02-23T08:19:22.443Z,39.30
2019-02-23T08:21:52.315Z,42.50
2019-02-23T08:24:22.317Z,32.20
2019-02-23T08:26:52.321Z,42.40
2019-02-23T08:29:22.236Z,32.27
2019-02-23T08:31:54.215Z,32.87
2019-02-23T08:34:24.212Z,39.67
2019-02-23T08:36:54.126Z,32.93
2019-02-23T08:39:24.097Z,39.87
2019-02-23T08:41:53.979Z,33.77
2019-02-23T08:44:23.973Z,40.27
2019-02-23T08:46:53.939Z,34.70
2019-02-23T08:49:23.922Z,33.77
2019-02-23T08:51:53.903Z,35.50
2019-02-23T08:54:23.909Z,38.60
2019-02-23T08:56:55.324Z,32.67
2019-02-23T08:59:25.358Z,37.40
2019-02-23T09:01:55.347Z,31.27
2019-02-23T09:04:25.336Z,33.50
2019-02-23T09:06:55.253Z,40.23
2019-02-23T09:09:25.275Z,31.73
2019-02-23T09:11:55.198Z,37.17
2019-02-23T09:14:25.133Z,35.23
2019-02-23T09:16:55.092Z,36.40
2019-02-23T09:19:25.000Z,33.93
2019-02-23T09:21:55.184Z,38.17
2019-02-23T09:24:25.187Z,33.03
2019-02-23T09:26:55.134Z,32.17
2019-02-23T09:29:25.056Z,35.63
2019-02-23T09:31:54.949Z,42.13
2019-02-23T09:34:24.947Z,32.03
2019-02-23T09:36:54.934Z,39.70
2019-02-23T09:39:25.026Z,29.80
2019-02-23T09:41:55.430Z,36.50
2019-02-23T09:44:25.325Z,36.23
2019-02-23T09:46:55.314Z,33.23
2019-02-23T09:49:26.059Z,36.07
2019-02-23T09:51:56.047Z,32.03
2019-02-23T09:54:26.224Z,36.33
2019-02-23T09:56:56.180Z,33.00
2019-02-23T09:59:26.176Z,31.30
2019-02-23T10:01:56.161Z,37.03
2019-02-23T10:04:26.094Z,34.50
2019-02-23T10:06:56.315Z,35.60
2019-02-23T10:09:26.440Z,33.57
2019-02-23T10:11:56.339Z,33.87
2019-02-23T10:14:26.455Z,27.93
2019-02-23T10:16:56.681Z,34.20
2019-02-23T10:19:26.586Z,31.40
2019-02-23T10:21:56.517Z,35.00
2019-02-23T10:24:26.629Z,32.80
2019-02-23T10:26:56.651Z,34.97
2019-02-23T10:29:26.702Z,39.60
2019-02-23T10:31:56.611Z,35.13
2019-02-23T10:34:26.517Z,36.50
2019-02-23T10:36:56.424Z,33.40
2019-02-23T10:39:26.321Z,33.47
2019-02-23T10:41:56.424Z,34.83
2019-02-23T10:44:26.819Z,32.50
2019-02-23T10:46:56.837Z,32.67
2019-02-23T10:49:27.010Z,31.53
2019-02-23T10:51:56.938Z,31.57
2019-02-23T10:54:26.823Z,43.93
2019-02-23T10:56:56.814Z,31.97
2019-02-23T10:59:26.802Z,30.40
2019-02-23T11:01:56.785Z,34.10
2019-02-23T11:04:26.684Z,28.00
2019-02-23T11:06:56.711Z,30.37
2019-02-23T11:09:31.094Z,35.83
2019-02-23T11:12:01.156Z,30.73
2019-02-23T11:14:31.067Z,30.87
2019-02-23T11:17:01.275Z,29.23
2019-02-23T11:19:31.240Z,28.13
2019-02-23T11:22:01.186Z,25.90
2019-02-23T11:24:31.249Z,31.93
2019-02-23T11:27:01.345Z,29.33
2019-02-23T11:29:31.358Z,26.47
2019-02-23T11:32:01.366Z,26.40
2019-02-23T11:34:31.376Z,23.83
2019-02-23T11:37:01.480Z,29.17
2019-02-23T11:39:31.447Z,29.70
2019-02-23T11:42:01.591Z,28.17
2019-02-23T11:44:31.536Z,31.23
2019-02-23T11:47:01.532Z,27.40
2019-02-23T11:49:31.461Z,33.97
2019-02-23T11:52:01.405Z,31.17
2019-02-23T11:54:31.301Z,28.50
2019-02-23T11:57:01.233Z,30.70
2019-02-23T11:59:31.153Z,30.17
2019-02-23T12:02:01.147Z,27.50
2019-02-23T12:04:31.055Z,31.37
2019-02-23T12:07:00.982Z,28.97
2019-02-23T12:09:30.951Z,25.30
2019-02-23T12:12:00.895Z,28.03
2019-02-23T12:14:30.897Z,31.50
2019-02-23T12:17:01.305Z,27.10
2019-02-23T12:19:31.177Z,24.60
2019-02-23T12:22:11.820Z,29.00
2019-02-23T12:24:33.011Z,33.10
2019-02-23T12:27:03.173Z,30.80
2019-02-23T12:29:33.173Z,25.80
2019-02-23T12:32:03.256Z,26.07
2019-02-23T12:34:33.326Z,30.90
2019-02-23T12:37:03.343Z,25.53
2019-02-23T12:39:33.371Z,21.47
2019-02-23T12:42:03.386Z,26.00
2019-02-23T12:44:33.388Z,23.33
2019-02-23T12:47:03.324Z,26.23
2019-02-23T12:49:33.323Z,22.03
2019-02-23T12:52:03.273Z,17.30
2019-02-23T12:54:33.321Z,21.23
2019-02-23T12:57:03.342Z,24.97
2019-02-23T12:59:33.392Z,28.13
2019-02-23T13:02:03.348Z,18.00
2019-02-23T13:04:33.303Z,16.53
2019-02-23T13:07:03.318Z,15.90
2019-02-23T13:09:35.839Z,17.40
2019-02-23T13:12:23.229Z,17.70
2019-02-23T13:15:03.862Z,18.33
2019-02-23T13:18:10.081Z,15.87
2019-02-23T13:21:17.442Z,17.63
2019-02-23T13:24:27.906Z,15.40
2019-02-23T13:27:33.666Z,16.00
2019-02-23T13:30:40.311Z,17.07
2019-02-23T13:34:01.559Z,16.97
2019-02-23T13:37:24.360Z,16.13
2019-02-23T13:40:15.592Z,19.50
2019-02-23T13:43:15.200Z,15.80
2019-02-23T13:45:55.575Z,18.23
2019-02-23T13:49:09.808Z,16.43
2019-02-23T13:52:15.357Z,18.40
2019-02-23T13:55:36.235Z,15.37
2019-02-23T13:58:31.963Z,19.37
2019-02-23T14:01:27.000Z,16.00
2019-02-23T14:04:13.948Z,18.60
2019-02-23T14:07:46.707Z,14.80
2019-02-23T14:10:30.686Z,16.40
2019-02-23T14:13:54.248Z,17.23
2019-02-23T14:16:48.952Z,21.97
2019-02-23T14:19:43.155Z,13.20
2019-02-23T14:22:51.624Z,16.40
2019-02-23T14:26:07.902Z,14.63
2019-02-23T14:29:15.407Z,13.80
2019-02-23T14:32:10.676Z,21.07
2019-02-23T14:35:14.257Z,10.53
2019-02-23T14:38:13.161Z,8.20
2019-02-23T14:41:30.932Z,9.20
2019-02-23T14:44:16.701Z,11.60
2019-02-23T14:47:29.543Z,10.97
2019-02-23T14:50:39.084Z,12.53
2019-02-23T14:53:45.471Z,12.80
2019-02-23T14:56:47.761Z,11.83
2019-02-23T14:59:42.124Z,11.07
2019-02-23T15:02:59.099Z,17.27
2019-02-23T15:05:45.828Z,14.40
2019-02-23T15:08:41.001Z,14.77
2019-02-23T15:11:52.507Z,16.50
2019-02-23T15:14:45.090Z,12.37
2019-02-23T15:17:56.406Z,13.57
2019-02-23T15:21:02.733Z,12.00
2019-02-23T15:23:56.162Z,14.07
2019-02-23T15:27:05.284Z,13.47
2019-02-23T15:29:55.302Z,13.47
2019-02-23T15:33:01.575Z,14.23
2019-02-23T15:36:02.234Z,14.00
2019-02-23T15:39:07.705Z,16.03
2019-02-23T15:42:04.930Z,16.80
2019-02-23T15:45:07.480Z,17.93
2019-02-23T15:48:15.938Z,14.43
2019-02-23T15:50:46.017Z,15.87
2019-02-23T15:53:16.209Z,15.80
2019-02-23T15:55:46.196Z,19.10
2019-02-23T15:58:16.132Z,18.00
2019-02-23T16:00:46.327Z,17.60
2019-02-23T16:03:16.253Z,18.27
2019-02-23T16:05:46.165Z,18.53
2019-02-23T16:08:16.135Z,22.20
2019-02-23T16:10:46.147Z,21.90
2019-02-23T16:13:16.154Z,20.57
2019-02-23T16:15:46.463Z,24.20
2019-02-23T16:18:17.037Z,20.43
2019-02-23T16:20:47.437Z,22.73
2019-02-23T16:23:17.699Z,21.60
2019-02-23T16:25:47.924Z,29.97
2019-02-23T16:28:18.260Z,19.77
2019-02-23T16:30:48.701Z,19.67
2019-02-23T16:33:18.950Z,22.57
2019-02-23T16:35:49.290Z,22.73
2019-02-23T16:38:19.186Z,25.73
2019-02-23T16:40:50.346Z,21.47
2019-02-23T16:43:21.052Z,22.27
2019-02-23T16:45:53.191Z,25.50
2019-02-23T16:48:23.478Z,21.17
2019-02-23T16:50:53.822Z,23.97
2019-02-23T16:53:24.145Z,23.63
2019-02-23T16:55:54.193Z,25.57
2019-02-23T16:58:24.292Z,27.37
2019-02-23T17:00:54.311Z,22.70
2019-02-23T17:03:24.311Z,31.67
2019-02-23T17:05:54.219Z,25.67
2019-02-23T17:08:24.290Z,26.57
2019-02-23T17:10:54.215Z,27.47
2019-02-23T17:13:24.259Z,26.43
2019-02-23T17:15:54.201Z,25.30
2019-02-23T17:18:24.200Z,26.17
2019-02-23T17:20:54.133Z,25.97
2019-02-23T17:23:24.136Z,36.93
2019-02-23T17:26:03.814Z,29.03
2019-02-23T17:28:25.828Z,27.73
2019-02-23T17:30:55.772Z,26.73
2019-02-23T17:33:28.014Z,32.33
2019-02-23T17:35:57.374Z,27.20
2019-02-23T17:38:27.412Z,26.17
2019-02-23T17:40:57.444Z,29.30
2019-02-23T17:43:27.365Z,27.00
2019-02-23T17:45:57.305Z,31.13
2019-02-23T17:48:27.377Z,27.90
2019-02-23T17:50:57.465Z,24.30
2019-02-23T17:53:27.415Z,24.33
2019-02-23T17:55:57.332Z,27.83
2019-02-23T17:58:27.259Z,25.83
2019-02-23T18:00:57.744Z,27.83
2019-02-23T18:03:27.743Z,26.30
2019-02-23T18:05:57.740Z,28.30
2019-02-23T18:08:27.842Z,27.07
2019-02-23T18:10:57.827Z,32.37
2019-02-23T18:13:27.976Z,38.10
2019-02-23T18:15:58.038Z,32.93
2019-02-23T18:18:28.077Z,29.80
2019-02-23T18:20:58.079Z,32.77
2019-02-23T18:23:28.076Z,28.47
2019-02-23T18:25:58.163Z,41.20
2019-02-23T18:28:28.170Z,28.57
2019-02-23T18:30:58.152Z,28.93
2019-02-23T18:33:28.226Z,23.20
2019-02-23T18:35:58.146Z,29.17
2019-02-23T18:38:28.006Z,30.57
2019-02-23T18:40:58.134Z,35.37
2019-02-23T18:43:28.050Z,29.67
2019-02-23T18:45:58.107Z,35.10
2019-02-23T18:48:28.123Z,29.43
2019-02-23T18:50:58.112Z,31.43
2019-02-23T18:53:28.043Z,31.50
2019-02-23T18:55:58.122Z,28.30
2019-02-23T18:58:28.127Z,31.93
2019-02-23T19:00:58.044Z,30.77
2019-02-23T19:03:28.930Z,33.17
2019-02-23T19:05:58.861Z,36.00
2019-02-23T19:08:29.019Z,35.03
2019-02-23T19:10:58.956Z,34.10
2019-02-23T19:13:28.942Z,33.03
2019-02-23T19:15:59.498Z,32.57
2019-02-23T19:18:30.467Z,31.60
2019-02-23T19:21:00.488Z,31.37
2019-02-23T19:23:30.498Z,34.90
2019-02-23T19:26:00.505Z,30.60
2019-02-23T19:28:30.597Z,34.50
2019-02-23T19:31:00.676Z,32.67
2019-02-23T19:33:30.640Z,35.97
2019-02-23T19:36:00.686Z,34.20
2019-02-23T19:38:30.622Z,30.00
2019-02-23T19:41:00.543Z,30.83
2019-02-23T19:43:30.493Z,32.17
2019-02-23T19:46:00.389Z,30.67
2019-02-23T19:48:30.374Z,32.57
2019-02-23T19:51:03.747Z,30.60
2019-02-23T19:53:33.673Z,33.17
2019-02-23T19:56:03.572Z,26.03
2019-02-23T19:58:33.471Z,33.17
2019-02-23T20:01:03.541Z,31.30
2019-02-23T20:03:33.479Z,26.20
2019-02-23T20:06:03.379Z,27.80
2019-02-23T20:08:33.284Z,37.20
2019-02-23T20:11:03.204Z,31.60
2019-02-23T20:13:33.253Z,34.30
2019-02-23T20:16:03.250Z,30.57
2019-02-23T20:18:33.374Z,31.43
2019-02-23T20:21:03.414Z,31.90
2019-02-23T20:23:33.392Z,33.03
2019-02-23T20:26:03.424Z,38.80
2019-02-23T20:28:33.344Z,33.33
2019-02-23T20:31:03.285Z,37.73
2019-02-23T20:33:33.266Z,29.83
2019-02-23T20:36:03.338Z,35.00
2019-02-23T20:38:33.423Z,38.90
2019-02-23T20:41:03.358Z,38.63
2019-02-23T20:43:33.238Z,26.67
2019-02-23T20:46:03.344Z,29.40
2019-02-23T20:48:33.318Z,32.93
2019-02-23T20:51:03.324Z,34.57
2019-02-23T20:53:33.242Z,28.67
2019-02-23T20:56:03.265Z,30.80
2019-02-23T20:58:33.297Z,40.87
2019-02-23T21:01:03.224Z,30.97
2019-02-23T21:03:33.137Z,29.07
2019-02-23T21:06:03.215Z,33.37
2019-02-23T21:08:33.236Z,36.73
2019-02-23T21:11:03.221Z,30.57
2019-02-23T21:13:33.131Z,30.80
2019-02-23T21:16:03.161Z,34.03
2019-02-23T21:18:33.076Z,33.07
2019-02-23T21:21:03.134Z,36.97
2019-02-23T21:23:33.048Z,31.50
2019-02-23T21:26:03.001Z,30.00
2019-02-23T21:28:32.902Z,34.93
2019-02-23T21:31:02.890Z,33.30
2019-02-23T21:33:32.857Z,33.50
2019-02-23T21:36:02.780Z,33.47
2019-02-23T21:38:32.847Z,30.37
2019-02-23T21:41:02.805Z,31.13
2019-02-23T21:43:32.726Z,31.87
2019-02-23T21:46:02.784Z,30.27
2019-02-23T21:48:32.685Z,30.80
2019-02-23T21:51:02.695Z,35.53
2019-02-23T21:53:32.643Z,32.93
2019-02-23T21:56:02.620Z,33.70
2019-02-23T21:58:32.591Z,37.13
2019-02-23T22:01:02.742Z,33.10
2019-02-23T22:03:32.796Z,32.03
2019-02-23T22:06:02.718Z,33.60
2019-02-23T22:08:32.669Z,35.10
2019-02-23T22:11:02.684Z,35.90
2019-02-23T22:13:32.592Z,33.20
2019-02-23T22:16:04.304Z,36.40
2019-02-23T22:18:34.251Z,39.00
2019-02-23T22:21:04.184Z,37.20
2019-02-23T22:23:34.179Z,38.67
2019-02-23T22:26:04.187Z,34.77
2019-02-23T22:28:34.196Z,38.13
2019-02-23T22:31:04.154Z,33.90
2019-02-23T22:33:34.049Z,33.90
2019-02-23T22:36:03.993Z,35.43
2019-02-23T22:38:34.025Z,33.20
2019-02-23T22:41:03.927Z,36.20
2019-02-23T22:43:33.905Z,32.13
2019-02-23T22:46:03.837Z,37.30
2019-02-23T22:48:33.751Z,32.30
2019-02-23T22:51:03.681Z,43.63
2019-02-23T22:53:33.568Z,34.37
2019-02-23T22:56:03.740Z,33.47
2019-02-23T22:58:33.912Z,33.27
2019-02-23T23:01:04.998Z,42.20
2019-02-23T23:03:34.896Z,33.60
2019-02-23T23:06:04.863Z,37.00
2019-02-23T23:08:34.847Z,32.27
2019-02-23T23:11:04.771Z,31.63
2019-02-23T23:13:34.759Z,34.17
2019-02-23T23:16:04.763Z,36.53
2019-02-23T23:18:34.667Z,32.20
2019-02-23T23:21:04.764Z,36.00
2019-02-23T23:23:34.757Z,34.17
2019-02-23T23:26:05.077Z,36.17
2019-02-23T23:28:35.059Z,46.83
2019-02-23T23:31:05.047Z,40.50
2019-02-23T23:33:35.069Z,33.90
2019-02-23T23:36:05.148Z,35.13
2019-02-23T23:38:35.060Z,36.73
2019-02-23T23:41:05.056Z,34.37
2019-02-23T23:43:34.973Z,38.13
2019-02-23T23:46:04.959Z,39.90
2019-02-23T23:48:34.960Z,37.20
2019-02-23T23:51:04.893Z,31.60
2019-02-23T23:53:34.798Z,33.47
2019-02-23T23:56:04.802Z,33.30
2019-02-23T23:58:34.734Z,37.20
